sensor_id;sensor_type;location;lat;lon;timestamp;P1;durP1;ratioP1;P2;durP2;ratioP2
5555;SDS011;2801;50.972;7.856;2023-01-08T00:01:14;5.75;;;3.00;;
5555;SDS011;2801;50.972;7.856;2023-01-08T00:03:42;6.25;;;3.33;;
5555;SDS011;2801;50.972;7.856;2023-01-08T00:06:11;4.32;;;2.65;;
5555;SDS011;2801;50.972;7.856;2023-01-08T00:08:41;4.80;;;2.72;;
5555;SDS011;2801;50.972;7.856;2023-01-08T00:11:08;4.53;;;2.90;;
5555;SDS011;2801;50.972;7.856;2023-01-08T00:13:36;3.42;;;2.55;;
5555;SDS011;2801;50.972;7.856;2023-01-08T00:16:08;4.28;;;2.75;;
5555;SDS011;2801;50.972;7.856;2023-01-08T00:18:38;5.07;;;3.03;;
5555;SDS011;2801;50.972;7.856;2023-01-08T00:21:06;4.10;;;2.53;;
5555;SDS011;2801;50.972;7.856;2023-01-08T00:23:33;4.95;;;2.50;;
5555;SDS011;2801;50.972;7.856;2023-01-08T00:26:02;3.40;;;2.40;;
5555;SDS011;2801;50.972;7.856;2023-01-08T00:28:31;3.78;;;2.70;;
5555;SDS011;2801;50.972;7.856;2023-01-08T00:31:01;3.95;;;2.90;;
5555;SDS011;2801;50.972;7.856;2023-01-08T00:33:30;3.80;;;3.00;;
5555;SDS011;2801;50.972;7.856;2023-01-08T00:35:57;4.07;;;2.47;;
5555;SDS011;2801;50.972;7.856;2023-01-08T00:38:25;3.17;;;2.60;;
5555;SDS011;2801;50.972;7.856;2023-01-08T00:40:53;3.28;;;2.28;;
5555;SDS011;2801;50.972;7.856;2023-01-08T00:43:20;3.72;;;2.45;;
5555;SDS011;2801;50.972;7.856;2023-01-08T00:45:48;2.80;;;1.83;;
5555;SDS011;2801;50.972;7.856;2023-01-08T00:48:19;3.05;;;2.10;;
5555;SDS011;2801;50.972;7.856;2023-01-08T00:50:50;3.58;;;2.28;;
5555;SDS011;2801;50.972;7.856;2023-01-08T00:53:19;2.58;;;1.92;;
5555;SDS011;2801;50.972;7.856;2023-01-08T00:55:47;3.10;;;2.10;;
5555;SDS011;2801;50.972;7.856;2023-01-08T00:58:14;3.40;;;2.20;;
5555;SDS011;2801;50.972;7.856;2023-01-08T01:00:41;3.20;;;2.25;;
5555;SDS011;2801;50.972;7.856;2023-01-08T01:03:08;3.60;;;2.20;;
5555;SDS011;2801;50.972;7.856;2023-01-08T01:05:35;3.10;;;2.05;;
5555;SDS011;2801;50.972;7.856;2023-01-08T01:08:02;4.10;;;2.20;;
5555;SDS011;2801;50.972;7.856;2023-01-08T01:10:29;3.35;;;2.38;;
5555;SDS011;2801;50.972;7.856;2023-01-08T01:12:56;4.63;;;2.33;;
5555;SDS011;2801;50.972;7.856;2023-01-08T01:15:22;4.10;;;2.30;;
5555;SDS011;2801;50.972;7.856;2023-01-08T01:17:49;3.65;;;2.28;;
5555;SDS011;2801;50.972;7.856;2023-01-08T01:20:16;2.95;;;1.95;;
5555;SDS011;2801;50.972;7.856;2023-01-08T01:22:43;4.38;;;2.50;;
5555;SDS011;2801;50.972;7.856;2023-01-08T01:25:10;4.15;;;2.40;;
5555;SDS011;2801;50.972;7.856;2023-01-08T01:27:37;3.70;;;2.10;;
5555;SDS011;2801;50.972;7.856;2023-01-08T01:30:04;4.57;;;2.30;;
5555;SDS011;2801;50.972;7.856;2023-01-08T01:32:32;3.17;;;2.00;;
5555;SDS011;2801;50.972;7.856;2023-01-08T01:34:59;3.42;;;2.10;;
5555;SDS011;2801;50.972;7.856;2023-01-08T01:37:26;5.47;;;2.40;;
5555;SDS011;2801;50.972;7.856;2023-01-08T01:39:53;3.28;;;2.33;;
5555;SDS011;2801;50.972;7.856;2023-01-08T01:42:21;5.05;;;2.45;;
5555;SDS011;2801;50.972;7.856;2023-01-08T01:45:19;7.70;;;2.80;;
5555;SDS011;2801;50.972;7.856;2023-01-08T01:47:57;4.20;;;2.75;;
5555;SDS011;2801;50.972;7.856;2023-01-08T01:50:50;5.32;;;3.00;;
5555;SDS011;2801;50.972;7.856;2023-01-08T01:56:00;4.38;;;2.80;;
5555;SDS011;2801;50.972;7.856;2023-01-08T01:58:29;5.97;;;2.97;;
5555;SDS011;2801;50.972;7.856;2023-01-08T02:01:00;4.25;;;2.85;;
5555;SDS011;2801;50.972;7.856;2023-01-08T02:03:34;5.65;;;2.97;;
5555;SDS011;2801;50.972;7.856;2023-01-08T02:06:23;4.78;;;2.67;;
5555;SDS011;2801;50.972;7.856;2023-01-08T02:12:57;4.93;;;3.10;;
5555;SDS011;2801;50.972;7.856;2023-01-08T02:18:04;5.15;;;3.70;;
5555;SDS011;2801;50.972;7.856;2023-01-08T02:20:41;5.68;;;3.35;;
5555;SDS011;2801;50.972;7.856;2023-01-08T02:31:33;6.20;;;3.67;;
5555;SDS011;2801;50.972;7.856;2023-01-08T02:34:05;6.60;;;3.93;;
5555;SDS011;2801;50.972;7.856;2023-01-08T02:36:34;5.35;;;3.70;;
5555;SDS011;2801;50.972;7.856;2023-01-08T02:44:46;6.05;;;3.55;;
5555;SDS011;2801;50.972;7.856;2023-01-08T02:47:28;7.22;;;4.00;;
5555;SDS011;2801;50.972;7.856;2023-01-08T02:52:45;5.75;;;3.88;;
5555;SDS011;2801;50.972;7.856;2023-01-08T02:55:34;9.20;;;4.30;;
5555;SDS011;2801;50.972;7.856;2023-01-08T02:58:04;5.60;;;3.72;;
5555;SDS011;2801;50.972;7.856;2023-01-08T03:00:32;7.50;;;3.80;;
5555;SDS011;2801;50.972;7.856;2023-01-08T03:05:48;6.32;;;3.25;;
5555;SDS011;2801;50.972;7.856;2023-01-08T03:08:18;7.47;;;4.00;;
5555;SDS011;2801;50.972;7.856;2023-01-08T03:10:59;6.60;;;4.03;;
5555;SDS011;2801;50.972;7.856;2023-01-08T03:13:49;5.90;;;3.80;;
5555;SDS011;2801;50.972;7.856;2023-01-08T03:16:28;5.38;;;3.60;;
5555;SDS011;2801;50.972;7.856;2023-01-08T03:19:27;7.03;;;3.73;;
5555;SDS011;2801;50.972;7.856;2023-01-08T03:22:02;7.18;;;3.60;;
5555;SDS011;2801;50.972;7.856;2023-01-08T03:24:37;6.13;;;3.85;;
5555;SDS011;2801;50.972;7.856;2023-01-08T03:27:08;6.10;;;3.47;;
5555;SDS011;2801;50.972;7.856;2023-01-08T03:29:41;5.90;;;3.47;;
5555;SDS011;2801;50.972;7.856;2023-01-08T03:32:12;7.97;;;3.75;;
5555;SDS011;2801;50.972;7.856;2023-01-08T03:34:42;4.65;;;3.30;;
5555;SDS011;2801;50.972;7.856;2023-01-08T03:37:14;4.90;;;3.22;;
5555;SDS011;2801;50.972;7.856;2023-01-08T03:39:50;4.43;;;3.00;;
5555;SDS011;2801;50.972;7.856;2023-01-08T03:42:36;4.55;;;2.72;;
5555;SDS011;2801;50.972;7.856;2023-01-08T03:45:03;5.68;;;3.40;;
5555;SDS011;2801;50.972;7.856;2023-01-08T03:47:31;7.15;;;3.22;;
5555;SDS011;2801;50.972;7.856;2023-01-08T03:50:02;5.28;;;3.33;;
5555;SDS011;2801;50.972;7.856;2023-01-08T03:52:36;4.55;;;2.60;;
5555;SDS011;2801;50.972;7.856;2023-01-08T03:55:02;5.05;;;2.88;;
5555;SDS011;2801;50.972;7.856;2023-01-08T03:57:30;4.43;;;2.72;;
5555;SDS011;2801;50.972;7.856;2023-01-08T03:59:56;7.53;;;2.70;;
5555;SDS011;2801;50.972;7.856;2023-01-08T04:02:23;4.70;;;2.88;;
5555;SDS011;2801;50.972;7.856;2023-01-08T04:04:50;6.25;;;3.00;;
5555;SDS011;2801;50.972;7.856;2023-01-08T04:07:17;4.90;;;2.72;;
5555;SDS011;2801;50.972;7.856;2023-01-08T04:09:44;3.97;;;2.47;;
5555;SDS011;2801;50.972;7.856;2023-01-08T04:12:12;4.28;;;2.13;;
5555;SDS011;2801;50.972;7.856;2023-01-08T04:14:39;3.72;;;2.50;;
5555;SDS011;2801;50.972;7.856;2023-01-08T04:17:05;3.80;;;2.58;;
5555;SDS011;2801;50.972;7.856;2023-01-08T04:19:32;3.83;;;2.50;;
5555;SDS011;2801;50.972;7.856;2023-01-08T04:21:59;4.27;;;2.37;;
5555;SDS011;2801;50.972;7.856;2023-01-08T04:24:26;4.32;;;2.55;;
5555;SDS011;2801;50.972;7.856;2023-01-08T04:26:53;4.03;;;2.10;;
5555;SDS011;2801;50.972;7.856;2023-01-08T04:29:20;4.47;;;2.45;;
5555;SDS011;2801;50.972;7.856;2023-01-08T04:31:46;3.55;;;2.30;;
5555;SDS011;2801;50.972;7.856;2023-01-08T04:34:13;2.83;;;1.92;;
5555;SDS011;2801;50.972;7.856;2023-01-08T04:36:40;4.60;;;2.17;;
5555;SDS011;2801;50.972;7.856;2023-01-08T04:39:07;2.65;;;1.80;;
5555;SDS011;2801;50.972;7.856;2023-01-08T04:41:35;4.67;;;2.20;;
5555;SDS011;2801;50.972;7.856;2023-01-08T04:44:02;3.90;;;2.27;;
5555;SDS011;2801;50.972;7.856;2023-01-08T04:46:29;4.20;;;2.33;;
5555;SDS011;2801;50.972;7.856;2023-01-08T04:48:56;2.92;;;2.10;;
5555;SDS011;2801;50.972;7.856;2023-01-08T04:51:23;2.88;;;1.60;;
5555;SDS011;2801;50.972;7.856;2023-01-08T04:53:51;3.03;;;1.70;;
5555;SDS011;2801;50.972;7.856;2023-01-08T04:56:18;2.85;;;1.60;;
5555;SDS011;2801;50.972;7.856;2023-01-08T04:58:45;3.10;;;1.70;;
5555;SDS011;2801;50.972;7.856;2023-01-08T05:01:22;2.33;;;1.38;;
5555;SDS011;2801;50.972;7.856;2023-01-08T05:03:55;2.15;;;1.42;;
5555;SDS011;2801;50.972;7.856;2023-01-08T05:06:24;3.08;;;1.20;;
5555;SDS011;2801;50.972;7.856;2023-01-08T05:08:54;2.65;;;1.75;;
5555;SDS011;2801;50.972;7.856;2023-01-08T05:11:21;2.17;;;1.50;;
5555;SDS011;2801;50.972;7.856;2023-01-08T05:13:49;2.60;;;1.60;;
5555;SDS011;2801;50.972;7.856;2023-01-08T05:16:19;2.88;;;1.60;;
5555;SDS011;2801;50.972;7.856;2023-01-08T05:18:47;2.35;;;1.52;;
5555;SDS011;2801;50.972;7.856;2023-01-08T05:21:15;2.63;;;1.30;;
5555;SDS011;2801;50.972;7.856;2023-01-08T05:23:43;1.80;;;1.30;;
5555;SDS011;2801;50.972;7.856;2023-01-08T05:26:13;2.40;;;1.53;;
5555;SDS011;2801;50.972;7.856;2023-01-08T05:28:41;4.00;;;1.20;;
5555;SDS011;2801;50.972;7.856;2023-01-08T05:31:08;3.00;;;1.67;;
5555;SDS011;2801;50.972;7.856;2023-01-08T05:33:37;2.20;;;1.60;;
5555;SDS011;2801;50.972;7.856;2023-01-08T05:36:05;2.40;;;1.57;;
5555;SDS011;2801;50.972;7.856;2023-01-08T05:38:33;1.63;;;1.42;;
5555;SDS011;2801;50.972;7.856;2023-01-08T05:41:00;2.33;;;1.60;;
5555;SDS011;2801;50.972;7.856;2023-01-08T05:43:28;1.90;;;1.43;;
5555;SDS011;2801;50.972;7.856;2023-01-08T05:45:56;4.03;;;1.40;;
5555;SDS011;2801;50.972;7.856;2023-01-08T05:48:25;2.20;;;1.50;;
5555;SDS011;2801;50.972;7.856;2023-01-08T05:50:54;2.15;;;1.42;;
5555;SDS011;2801;50.972;7.856;2023-01-08T05:53:21;1.92;;;1.40;;
5555;SDS011;2801;50.972;7.856;2023-01-08T05:55:48;2.73;;;1.27;;
5555;SDS011;2801;50.972;7.856;2023-01-08T05:58:14;1.95;;;1.20;;
5555;SDS011;2801;50.972;7.856;2023-01-08T06:00:44;3.15;;;1.50;;
5555;SDS011;2801;50.972;7.856;2023-01-08T06:03:11;2.70;;;0.80;;
5555;SDS011;2801;50.972;7.856;2023-01-08T06:05:38;1.20;;;1.00;;
5555;SDS011;2801;50.972;7.856;2023-01-08T06:08:04;1.50;;;1.20;;
5555;SDS011;2801;50.972;7.856;2023-01-08T06:10:33;1.98;;;1.20;;
5555;SDS011;2801;50.972;7.856;2023-01-08T06:13:06;1.92;;;1.40;;
5555;SDS011;2801;50.972;7.856;2023-01-08T06:15:36;3.15;;;1.23;;
5555;SDS011;2801;50.972;7.856;2023-01-08T06:18:05;1.55;;;0.90;;
5555;SDS011;2801;50.972;7.856;2023-01-08T06:20:32;1.70;;;1.20;;
5555;SDS011;2801;50.972;7.856;2023-01-08T06:22:59;1.83;;;1.13;;
5555;SDS011;2801;50.972;7.856;2023-01-08T06:25:26;2.13;;;1.27;;
5555;SDS011;2801;50.972;7.856;2023-01-08T06:27:54;2.13;;;1.00;;
5555;SDS011;2801;50.972;7.856;2023-01-08T06:30:21;1.77;;;1.20;;
5555;SDS011;2801;50.972;7.856;2023-01-08T06:32:48;2.37;;;1.23;;
5555;SDS011;2801;50.972;7.856;2023-01-08T06:35:15;2.00;;;1.20;;
5555;SDS011;2801;50.972;7.856;2023-01-08T06:37:41;2.00;;;1.10;;
5555;SDS011;2801;50.972;7.856;2023-01-08T06:40:09;2.43;;;1.30;;
5555;SDS011;2801;50.972;7.856;2023-01-08T06:42:36;2.47;;;1.30;;
5555;SDS011;2801;50.972;7.856;2023-01-08T06:45:03;1.65;;;1.27;;
5555;SDS011;2801;50.972;7.856;2023-01-08T06:47:31;1.70;;;1.30;;
5555;SDS011;2801;50.972;7.856;2023-01-08T06:49:58;2.80;;;1.43;;
5555;SDS011;2801;50.972;7.856;2023-01-08T06:52:25;1.58;;;1.30;;
5555;SDS011;2801;50.972;7.856;2023-01-08T06:54:52;3.60;;;1.40;;
5555;SDS011;2801;50.972;7.856;2023-01-08T06:57:18;1.73;;;1.20;;
5555;SDS011;2801;50.972;7.856;2023-01-08T06:59:45;2.85;;;1.15;;
5555;SDS011;2801;50.972;7.856;2023-01-08T07:02:13;2.20;;;1.20;;
5555;SDS011;2801;50.972;7.856;2023-01-08T07:04:42;2.20;;;1.03;;
5555;SDS011;2801;50.972;7.856;2023-01-08T07:07:13;2.27;;;1.47;;
5555;SDS011;2801;50.972;7.856;2023-01-08T07:09:41;1.90;;;1.10;;
5555;SDS011;2801;50.972;7.856;2023-01-08T07:12:11;1.95;;;1.30;;
5555;SDS011;2801;50.972;7.856;2023-01-08T07:14:39;1.98;;;1.20;;
5555;SDS011;2801;50.972;7.856;2023-01-08T07:17:06;2.07;;;1.30;;
5555;SDS011;2801;50.972;7.856;2023-01-08T07:19:33;2.17;;;1.37;;
5555;SDS011;2801;50.972;7.856;2023-01-08T07:22:00;1.88;;;1.38;;
5555;SDS011;2801;50.972;7.856;2023-01-08T07:24:27;2.25;;;1.45;;
5555;SDS011;2801;50.972;7.856;2023-01-08T07:26:54;3.03;;;1.57;;
5555;SDS011;2801;50.972;7.856;2023-01-08T07:29:21;1.87;;;1.37;;
5555;SDS011;2801;50.972;7.856;2023-01-08T07:31:48;1.38;;;0.95;;
5555;SDS011;2801;50.972;7.856;2023-01-08T07:34:15;1.80;;;1.27;;
5555;SDS011;2801;50.972;7.856;2023-01-08T07:36:42;2.27;;;1.60;;
5555;SDS011;2801;50.972;7.856;2023-01-08T07:39:09;2.00;;;1.17;;
5555;SDS011;2801;50.972;7.856;2023-01-08T07:41:36;1.93;;;1.30;;
5555;SDS011;2801;50.972;7.856;2023-01-08T07:44:03;1.93;;;1.40;;
5555;SDS011;2801;50.972;7.856;2023-01-08T07:46:29;1.97;;;1.43;;
5555;SDS011;2801;50.972;7.856;2023-01-08T07:48:56;1.65;;;1.25;;
5555;SDS011;2801;50.972;7.856;2023-01-08T07:51:24;2.67;;;1.10;;
5555;SDS011;2801;50.972;7.856;2023-01-08T07:53:51;1.50;;;1.20;;
5555;SDS011;2801;50.972;7.856;2023-01-08T07:56:18;2.08;;;1.20;;
5555;SDS011;2801;50.972;7.856;2023-01-08T07:58:44;3.15;;;1.63;;
5555;SDS011;2801;50.972;7.856;2023-01-08T08:01:13;3.20;;;1.63;;
5555;SDS011;2801;50.972;7.856;2023-01-08T08:03:41;4.55;;;1.80;;
5555;SDS011;2801;50.972;7.856;2023-01-08T08:06:08;3.43;;;1.87;;
5555;SDS011;2801;50.972;7.856;2023-01-08T08:08:35;2.17;;;1.50;;
5555;SDS011;2801;50.972;7.856;2023-01-08T08:11:02;2.83;;;1.60;;
5555;SDS011;2801;50.972;7.856;2023-01-08T08:13:30;2.97;;;1.47;;
5555;SDS011;2801;50.972;7.856;2023-01-08T08:16:01;2.40;;;1.20;;
5555;SDS011;2801;50.972;7.856;2023-01-08T08:18:29;1.87;;;1.40;;
5555;SDS011;2801;50.972;7.856;2023-01-08T08:20:56;2.17;;;1.20;;
5555;SDS011;2801;50.972;7.856;2023-01-08T08:23:23;2.07;;;1.10;;
5555;SDS011;2801;50.972;7.856;2023-01-08T08:25:50;2.73;;;1.30;;
5555;SDS011;2801;50.972;7.856;2023-01-08T08:28:17;2.27;;;1.20;;
5555;SDS011;2801;50.972;7.856;2023-01-08T08:30:44;1.73;;;1.20;;
5555;SDS011;2801;50.972;7.856;2023-01-08T08:33:12;3.20;;;1.33;;
5555;SDS011;2801;50.972;7.856;2023-01-08T08:35:39;2.03;;;1.17;;
5555;SDS011;2801;50.972;7.856;2023-01-08T08:38:06;1.50;;;1.20;;
5555;SDS011;2801;50.972;7.856;2023-01-08T08:40:33;5.70;;;1.13;;
5555;SDS011;2801;50.972;7.856;2023-01-08T08:43:00;1.47;;;0.90;;
5555;SDS011;2801;50.972;7.856;2023-01-08T08:45:29;2.33;;;1.23;;
5555;SDS011;2801;50.972;7.856;2023-01-08T08:47:56;2.10;;;1.00;;
5555;SDS011;2801;50.972;7.856;2023-01-08T08:50:23;1.97;;;0.90;;
5555;SDS011;2801;50.972;7.856;2023-01-08T08:52:50;2.13;;;0.90;;
5555;SDS011;2801;50.972;7.856;2023-01-08T08:55:17;2.37;;;1.60;;
5555;SDS011;2801;50.972;7.856;2023-01-08T08:57:44;1.50;;;1.10;;
5555;SDS011;2801;50.972;7.856;2023-01-08T09:00:12;2.03;;;1.50;;
5555;SDS011;2801;50.972;7.856;2023-01-08T09:02:41;2.20;;;1.40;;
5555;SDS011;2801;50.972;7.856;2023-01-08T09:05:08;4.57;;;2.67;;
5555;SDS011;2801;50.972;7.856;2023-01-08T09:07:36;3.27;;;1.73;;
5555;SDS011;2801;50.972;7.856;2023-01-08T09:10:03;2.00;;;1.37;;
5555;SDS011;2801;50.972;7.856;2023-01-08T09:12:31;1.77;;;1.20;;
5555;SDS011;2801;50.972;7.856;2023-01-08T09:14:58;3.92;;;1.50;;
5555;SDS011;2801;50.972;7.856;2023-01-08T09:17:24;3.40;;;1.45;;
5555;SDS011;2801;50.972;7.856;2023-01-08T09:19:51;1.97;;;1.33;;
5555;SDS011;2801;50.972;7.856;2023-01-08T09:22:18;3.65;;;1.70;;
5555;SDS011;2801;50.972;7.856;2023-01-08T09:24:45;2.43;;;1.67;;
5555;SDS011;2801;50.972;7.856;2023-01-08T09:27:12;2.10;;;1.40;;
5555;SDS011;2801;50.972;7.856;2023-01-08T09:29:40;3.47;;;1.50;;
5555;SDS011;2801;50.972;7.856;2023-01-08T09:32:07;2.20;;;1.70;;
5555;SDS011;2801;50.972;7.856;2023-01-08T09:34:34;2.83;;;1.90;;
5555;SDS011;2801;50.972;7.856;2023-01-08T09:37:02;3.53;;;1.87;;
5555;SDS011;2801;50.972;7.856;2023-01-08T09:39:29;3.25;;;1.98;;
5555;SDS011;2801;50.972;7.856;2023-01-08T09:41:57;2.50;;;1.77;;
5555;SDS011;2801;50.972;7.856;2023-01-08T09:44:30;3.07;;;1.70;;
5555;SDS011;2801;50.972;7.856;2023-01-08T09:47:05;4.03;;;1.40;;
5555;SDS011;2801;50.972;7.856;2023-01-08T09:49:46;2.20;;;1.50;;
5555;SDS011;2801;50.972;7.856;2023-01-08T09:52:15;2.80;;;1.40;;
5555;SDS011;2801;50.972;7.856;2023-01-08T09:54:42;2.33;;;1.38;;
5555;SDS011;2801;50.972;7.856;2023-01-08T09:57:12;4.15;;;1.60;;
5555;SDS011;2801;50.972;7.856;2023-01-08T09:59:46;2.55;;;1.42;;
5555;SDS011;2801;50.972;7.856;2023-01-08T10:02:16;2.58;;;1.40;;
5555;SDS011;2801;50.972;7.856;2023-01-08T10:04:53;3.03;;;1.88;;
5555;SDS011;2801;50.972;7.856;2023-01-08T10:07:23;4.80;;;1.93;;
5555;SDS011;2801;50.972;7.856;2023-01-08T10:09:53;2.60;;;1.65;;
5555;SDS011;2801;50.972;7.856;2023-01-08T10:12:23;3.43;;;1.70;;
5555;SDS011;2801;50.972;7.856;2023-01-08T10:14:59;2.83;;;1.73;;
5555;SDS011;2801;50.972;7.856;2023-01-08T10:17:40;5.03;;;1.50;;
5555;SDS011;2801;50.972;7.856;2023-01-08T10:20:13;4.17;;;1.83;;
5555;SDS011;2801;50.972;7.856;2023-01-08T10:22:47;2.72;;;1.33;;
5555;SDS011;2801;50.972;7.856;2023-01-08T10:25:21;3.70;;;2.00;;
5555;SDS011;2801;50.972;7.856;2023-01-08T10:27:56;3.45;;;1.77;;
5555;SDS011;2801;50.972;7.856;2023-01-08T10:30:33;2.23;;;1.67;;
5555;SDS011;2801;50.972;7.856;2023-01-08T10:33:10;2.90;;;1.53;;
5555;SDS011;2801;50.972;7.856;2023-01-08T10:35:49;3.60;;;1.60;;
5555;SDS011;2801;50.972;7.856;2023-01-08T10:38:35;3.08;;;1.70;;
5555;SDS011;2801;50.972;7.856;2023-01-08T10:41:09;4.50;;;2.00;;
5555;SDS011;2801;50.972;7.856;2023-01-08T10:46:24;3.58;;;1.90;;
5555;SDS011;2801;50.972;7.856;2023-01-08T10:48:59;4.80;;;1.90;;
5555;SDS011;2801;50.972;7.856;2023-01-08T10:51:29;1.55;;;1.25;;
5555;SDS011;2801;50.972;7.856;2023-01-08T10:53:58;3.28;;;1.50;;
5555;SDS011;2801;50.972;7.856;2023-01-08T10:56:40;2.75;;;1.90;;
5555;SDS011;2801;50.972;7.856;2023-01-08T10:59:19;3.50;;;1.20;;
5555;SDS011;2801;50.972;7.856;2023-01-08T11:01:48;1.85;;;1.38;;
5555;SDS011;2801;50.972;7.856;2023-01-08T11:04:31;2.35;;;1.30;;
5555;SDS011;2801;50.972;7.856;2023-01-08T11:07:02;2.63;;;1.40;;
5555;SDS011;2801;50.972;7.856;2023-01-08T11:09:32;1.90;;;1.40;;
5555;SDS011;2801;50.972;7.856;2023-01-08T11:15:07;2.83;;;1.08;;
5555;SDS011;2801;50.972;7.856;2023-01-08T11:18:02;4.93;;;2.00;;
5555;SDS011;2801;50.972;7.856;2023-01-08T11:20:51;0.47;;;0.45;;
5555;SDS011;2801;50.972;7.856;2023-01-08T11:23:31;1.83;;;1.10;;
5555;SDS011;2801;50.972;7.856;2023-01-08T11:26:04;1.60;;;1.08;;
5555;SDS011;2801;50.972;7.856;2023-01-08T11:31:28;3.13;;;1.23;;
5555;SDS011;2801;50.972;7.856;2023-01-08T11:34:33;2.30;;;1.00;;
5555;SDS011;2801;50.972;7.856;2023-01-08T11:37:20;5.20;;;1.00;;
5555;SDS011;2801;50.972;7.856;2023-01-08T11:39:56;1.88;;;1.10;;
5555;SDS011;2801;50.972;7.856;2023-01-08T11:45:25;2.17;;;1.10;;
5555;SDS011;2801;50.972;7.856;2023-01-08T11:50:45;5.50;;;1.10;;
5555;SDS011;2801;50.972;7.856;2023-01-08T11:56:56;2.95;;;1.10;;
5555;SDS011;2801;50.972;7.856;2023-01-08T11:59:39;2.22;;;1.10;;
5555;SDS011;2801;50.972;7.856;2023-01-08T12:02:33;2.78;;;1.02;;
5555;SDS011;2801;50.972;7.856;2023-01-08T12:08:07;1.95;;;1.05;;
5555;SDS011;2801;50.972;7.856;2023-01-08T12:11:05;2.88;;;1.30;;
5555;SDS011;2801;50.972;7.856;2023-01-08T12:16:45;2.45;;;1.20;;
5555;SDS011;2801;50.972;7.856;2023-01-08T12:22:43;4.18;;;1.10;;
5555;SDS011;2801;50.972;7.856;2023-01-08T12:25:31;3.75;;;1.27;;
5555;SDS011;2801;50.972;7.856;2023-01-08T12:31:55;2.75;;;1.23;;
5555;SDS011;2801;50.972;7.856;2023-01-08T12:37:31;1.67;;;1.10;;
5555;SDS011;2801;50.972;7.856;2023-01-08T12:42:57;2.25;;;1.17;;
5555;SDS011;2801;50.972;7.856;2023-01-08T12:45:33;2.80;;;1.00;;
5555;SDS011;2801;50.972;7.856;2023-01-08T12:48:14;2.33;;;0.93;;
5555;SDS011;2801;50.972;7.856;2023-01-08T13:08:01;2.57;;;0.60;;
5555;SDS011;2801;50.972;7.856;2023-01-08T13:10:35;2.90;;;0.70;;
5555;SDS011;2801;50.972;7.856;2023-01-08T13:13:26;4.20;;;0.88;;
5555;SDS011;2801;50.972;7.856;2023-01-08T13:21:26;0.95;;;0.70;;
5555;SDS011;2801;50.972;7.856;2023-01-08T13:27:36;1.60;;;0.80;;
5555;SDS011;2801;50.972;7.856;2023-01-08T13:29:55;0.52;;;0.50;;
5555;SDS011;2801;50.972;7.856;2023-01-08T13:37:42;1.37;;;0.80;;
5555;SDS011;2801;50.972;7.856;2023-01-08T13:43:14;1.88;;;0.93;;
5555;SDS011;2801;50.972;7.856;2023-01-08T13:48:37;0.40;;;0.40;;
5555;SDS011;2801;50.972;7.856;2023-01-08T13:51:28;2.22;;;0.70;;
5555;SDS011;2801;50.972;7.856;2023-01-08T13:56:43;1.38;;;0.60;;
5555;SDS011;2801;50.972;7.856;2023-01-08T14:01:59;0.70;;;0.50;;
5555;SDS011;2801;50.972;7.856;2023-01-08T14:04:26;2.05;;;0.80;;
5555;SDS011;2801;50.972;7.856;2023-01-08T14:07:03;2.72;;;0.82;;
5555;SDS011;2801;50.972;7.856;2023-01-08T14:09:40;1.20;;;0.70;;
5555;SDS011;2801;50.972;7.856;2023-01-08T14:12:11;1.63;;;0.73;;
5555;SDS011;2801;50.972;7.856;2023-01-08T14:14:47;1.47;;;0.83;;
5555;SDS011;2801;50.972;7.856;2023-01-08T14:17:19;2.57;;;0.90;;
5555;SDS011;2801;50.972;7.856;2023-01-08T14:19:51;1.92;;;0.75;;
5555;SDS011;2801;50.972;7.856;2023-01-08T14:22:19;1.17;;;0.60;;
5555;SDS011;2801;50.972;7.856;2023-01-08T14:25:00;1.73;;;0.73;;
5555;SDS011;2801;50.972;7.856;2023-01-08T14:27:33;0.50;;;0.40;;
5555;SDS011;2801;50.972;7.856;2023-01-08T14:30:01;0.70;;;0.60;;
5555;SDS011;2801;50.972;7.856;2023-01-08T14:32:41;0.70;;;0.70;;
5555;SDS011;2801;50.972;7.856;2023-01-08T14:35:13;0.65;;;0.50;;
5555;SDS011;2801;50.972;7.856;2023-01-08T14:37:43;1.07;;;0.70;;
5555;SDS011;2801;50.972;7.856;2023-01-08T14:40:13;0.87;;;0.60;;
5555;SDS011;2801;50.972;7.856;2023-01-08T14:42:43;1.13;;;0.63;;
5555;SDS011;2801;50.972;7.856;2023-01-08T14:47:47;1.20;;;0.50;;
5555;SDS011;2801;50.972;7.856;2023-01-08T14:53:03;1.67;;;0.68;;
5555;SDS011;2801;50.972;7.856;2023-01-08T14:55:47;0.90;;;0.50;;
5555;SDS011;2801;50.972;7.856;2023-01-08T14:58:19;4.05;;;1.00;;
5555;SDS011;2801;50.972;7.856;2023-01-08T15:01:03;0.90;;;0.70;;
5555;SDS011;2801;50.972;7.856;2023-01-08T15:03:40;0.80;;;0.70;;
5555;SDS011;2801;50.972;7.856;2023-01-08T15:06:10;1.33;;;0.73;;
5555;SDS011;2801;50.972;7.856;2023-01-08T15:08:48;0.80;;;0.70;;
5555;SDS011;2801;50.972;7.856;2023-01-08T15:13:45;0.70;;;0.60;;
5555;SDS011;2801;50.972;7.856;2023-01-08T15:21:36;0.90;;;0.68;;
5555;SDS011;2801;50.972;7.856;2023-01-08T15:24:04;1.63;;;0.50;;
5555;SDS011;2801;50.972;7.856;2023-01-08T15:26:33;1.00;;;0.80;;
5555;SDS011;2801;50.972;7.856;2023-01-08T15:29:06;1.70;;;0.80;;
5555;SDS011;2801;50.972;7.856;2023-01-08T15:34:06;1.60;;;0.67;;
5555;SDS011;2801;50.972;7.856;2023-01-08T15:36:33;1.27;;;0.50;;
5555;SDS011;2801;50.972;7.856;2023-01-08T15:39:01;1.43;;;0.70;;
5555;SDS011;2801;50.972;7.856;2023-01-08T15:41:36;2.00;;;0.80;;
5555;SDS011;2801;50.972;7.856;2023-01-08T15:44:24;0.80;;;0.70;;
5555;SDS011;2801;50.972;7.856;2023-01-08T15:46:51;0.80;;;0.67;;
5555;SDS011;2801;50.972;7.856;2023-01-08T15:49:18;2.07;;;0.90;;
5555;SDS011;2801;50.972;7.856;2023-01-08T15:51:46;0.97;;;0.80;;
5555;SDS011;2801;50.972;7.856;2023-01-08T15:54:16;2.05;;;0.60;;
5555;SDS011;2801;50.972;7.856;2023-01-08T15:56:48;0.50;;;0.40;;
5555;SDS011;2801;50.972;7.856;2023-01-08T15:59:15;2.00;;;0.60;;
5555;SDS011;2801;50.972;7.856;2023-01-08T16:01:42;0.82;;;0.50;;
5555;SDS011;2801;50.972;7.856;2023-01-08T16:04:09;0.80;;;0.60;;
5555;SDS011;2801;50.972;7.856;2023-01-08T16:06:36;0.90;;;0.70;;
5555;SDS011;2801;50.972;7.856;2023-01-08T16:09:03;1.93;;;0.80;;
5555;SDS011;2801;50.972;7.856;2023-01-08T16:11:30;2.30;;;0.70;;
5555;SDS011;2801;50.972;7.856;2023-01-08T16:13:57;1.30;;;0.70;;
5555;SDS011;2801;50.972;7.856;2023-01-08T16:16:24;1.23;;;0.77;;
5555;SDS011;2801;50.972;7.856;2023-01-08T16:18:50;1.07;;;0.77;;
5555;SDS011;2801;50.972;7.856;2023-01-08T16:21:17;1.07;;;0.73;;
5555;SDS011;2801;50.972;7.856;2023-01-08T16:23:44;1.53;;;0.80;;
5555;SDS011;2801;50.972;7.856;2023-01-08T16:26:12;1.37;;;0.93;;
5555;SDS011;2801;50.972;7.856;2023-01-08T16:28:40;0.83;;;0.63;;
5555;SDS011;2801;50.972;7.856;2023-01-08T16:31:08;3.77;;;0.87;;
5555;SDS011;2801;50.972;7.856;2023-01-08T16:33:35;2.40;;;0.83;;
5555;SDS011;2801;50.972;7.856;2023-01-08T16:36:04;2.63;;;1.00;;
5555;SDS011;2801;50.972;7.856;2023-01-08T16:38:33;2.53;;;1.10;;
5555;SDS011;2801;50.972;7.856;2023-01-08T16:41:01;1.77;;;1.03;;
5555;SDS011;2801;50.972;7.856;2023-01-08T16:43:30;3.00;;;1.10;;
5555;SDS011;2801;50.972;7.856;2023-01-08T16:46:09;2.00;;;0.93;;
5555;SDS011;2801;50.972;7.856;2023-01-08T16:48:39;1.80;;;0.80;;
5555;SDS011;2801;50.972;7.856;2023-01-08T16:51:07;1.47;;;0.90;;
5555;SDS011;2801;50.972;7.856;2023-01-08T16:53:35;2.40;;;1.00;;
5555;SDS011;2801;50.972;7.856;2023-01-08T16:56:02;0.93;;;0.70;;
5555;SDS011;2801;50.972;7.856;2023-01-08T16:58:30;3.10;;;1.00;;
5555;SDS011;2801;50.972;7.856;2023-01-08T17:00:57;2.90;;;1.10;;
5555;SDS011;2801;50.972;7.856;2023-01-08T17:03:24;1.13;;;0.93;;
5555;SDS011;2801;50.972;7.856;2023-01-08T17:05:51;1.53;;;0.73;;
5555;SDS011;2801;50.972;7.856;2023-01-08T17:08:18;1.23;;;0.80;;
5555;SDS011;2801;50.972;7.856;2023-01-08T17:10:45;0.57;;;0.53;;
5555;SDS011;2801;50.972;7.856;2023-01-08T17:13:12;2.27;;;0.90;;
5555;SDS011;2801;50.972;7.856;2023-01-08T17:15:39;1.50;;;0.93;;
5555;SDS011;2801;50.972;7.856;2023-01-08T17:18:06;2.17;;;1.07;;
5555;SDS011;2801;50.972;7.856;2023-01-08T17:20:33;1.97;;;0.87;;
5555;SDS011;2801;50.972;7.856;2023-01-08T17:23:02;2.73;;;0.90;;
5555;SDS011;2801;50.972;7.856;2023-01-08T17:25:28;1.70;;;0.83;;
5555;SDS011;2801;50.972;7.856;2023-01-08T17:27:55;3.87;;;1.13;;
5555;SDS011;2801;50.972;7.856;2023-01-08T17:30:22;1.33;;;0.80;;
5555;SDS011;2801;50.972;7.856;2023-01-08T17:32:49;6.13;;;2.27;;
5555;SDS011;2801;50.972;7.856;2023-01-08T17:35:15;1.20;;;0.80;;
5555;SDS011;2801;50.972;7.856;2023-01-08T17:37:42;4.97;;;1.40;;
5555;SDS011;2801;50.972;7.856;2023-01-08T17:40:09;6.60;;;2.83;;